createdAt,value
2018-12-12T00:09:49.100Z,84.98
2018-12-12T00:20:08.868Z,84.86
2018-12-12T00:30:28.626Z,84.87
2018-12-12T00:40:48.454Z,84.99
2018-12-12T00:51:08.832Z,86.14
2018-12-12T01:01:28.324Z,87.08
2018-12-12T01:12:02.890Z,86.77
2018-12-12T01:22:22.468Z,86.21
2018-12-12T01:32:41.806Z,87.93
2018-12-12T01:43:01.071Z,87.88
2018-12-12T01:53:21.242Z,87.81
2018-12-12T02:03:41.054Z,89.29
2018-12-12T02:14:01.023Z,89.54
2018-12-12T02:24:21.841Z,88.36
2018-12-12T02:34:40.844Z,89.23
2018-12-12T02:45:00.841Z,89.32
2018-12-12T02:55:20.612Z,88.11
2018-12-12T03:05:39.969Z,88.97
2018-12-12T03:16:00.063Z,89.36
2018-12-12T03:26:19.336Z,89.40
2018-12-12T03:36:38.741Z,89.29
2018-12-12T03:46:58.553Z,89.12
2018-12-12T03:57:19.275Z,88.98
2018-12-12T04:07:38.509Z,87.94
2018-12-12T04:17:58.290Z,86.79
2018-12-12T04:28:20.362Z,87.50
2018-12-12T04:38:40.520Z,87.69
2018-12-12T04:49:00.098Z,87.71
2018-12-12T04:59:20.684Z,87.66
2018-12-12T05:09:42.315Z,88.05
2018-12-12T05:20:03.720Z,88.69
2018-12-12T05:30:23.167Z,89.77
2018-12-12T05:40:42.773Z,89.73
2018-12-12T05:51:02.943Z,90.21
2018-12-12T06:01:23.755Z,89.21
2018-12-12T06:11:43.416Z,91.68
2018-12-12T06:22:02.405Z,93.90
2018-12-12T06:32:23.282Z,93.26
2018-12-12T06:42:46.511Z,93.13
2018-12-12T06:53:06.300Z,93.64
2018-12-12T07:03:25.898Z,93.08
2018-12-12T07:13:46.517Z,93.00
2018-12-12T07:24:06.624Z,93.63
2018-12-12T07:34:26.090Z,94.43
2018-12-12T07:44:47.181Z,95.27
2018-12-12T07:55:08.200Z,95.34
2018-12-12T08:05:27.205Z,95.66
2018-12-12T08:15:47.048Z,95.03
2018-12-12T08:26:07.119Z,92.93
2018-12-12T08:36:26.418Z,92.86
2018-12-12T08:46:45.779Z,93.14
2018-12-12T08:57:05.853Z,91.72
2018-12-12T09:07:25.915Z,91.99
2018-12-12T09:17:45.693Z,91.91
2018-12-12T09:28:06.926Z,91.65
2018-12-12T09:38:27.376Z,90.60
2018-12-12T09:48:46.362Z,89.24
2018-12-12T09:59:05.987Z,88.66
2018-12-12T10:09:25.749Z,86.77
2018-12-12T10:19:45.524Z,84.78
2018-12-12T10:30:05.583Z,83.91
2018-12-12T10:40:26.480Z,83.54
2018-12-12T10:50:46.302Z,84.77
2018-12-12T11:01:24.813Z,84.51
2018-12-12T11:11:44.104Z,84.98
2018-12-12T11:22:04.168Z,85.16
2018-12-12T11:32:23.430Z,85.04
2018-12-12T11:42:42.990Z,84.90
2018-12-12T11:53:02.607Z,84.86
2018-12-12T12:03:22.514Z,84.05
2018-12-12T12:13:41.476Z,84.69
2018-12-12T12:24:01.044Z,84.97
2018-12-12T12:34:21.470Z,85.27
2018-12-12T12:44:41.172Z,85.29
2018-12-12T12:55:01.588Z,85.28
2018-12-12T13:05:21.062Z,85.12
2018-12-12T13:15:40.640Z,84.91
2018-12-12T13:26:00.054Z,85.68
2018-12-12T13:36:21.120Z,86.17
2018-12-12T13:46:40.033Z,86.73
2018-12-12T13:56:59.815Z,87.67
2018-12-12T14:07:19.474Z,88.75
2018-12-12T14:17:39.582Z,88.44
2018-12-12T14:28:00.837Z,88.48
2018-12-12T14:38:21.195Z,88.68
2018-12-12T14:48:41.327Z,88.36
2018-12-12T14:59:02.472Z,88.90
2018-12-12T15:09:23.730Z,88.96
2018-12-12T15:19:45.573Z,88.74
2018-12-12T15:30:08.879Z,89.13
2018-12-12T15:40:31.888Z,89.70
2018-12-12T16:02:33.055Z,90.10
2018-12-12T16:13:23.182Z,90.37
2018-12-12T17:06:08.552Z,91.41
2018-12-12T17:16:32.360Z,91.87
2018-12-12T17:26:51.835Z,91.87
2018-12-12T17:37:17.418Z,91.84
2018-12-12T17:47:37.714Z,90.65
2018-12-12T17:57:58.613Z,91.07
2018-12-12T18:08:19.903Z,90.74
2018-12-12T18:18:40.132Z,90.26
2018-12-12T18:29:00.824Z,90.45
2018-12-12T18:39:21.800Z,90.47
2018-12-12T18:49:42.429Z,90.68
2018-12-12T19:00:12.782Z,91.01
2018-12-12T19:10:36.179Z,91.49
2018-12-12T19:21:00.449Z,91.87
2018-12-12T19:31:22.831Z,92.00
2018-12-12T19:41:45.767Z,92.27
2018-12-12T19:52:06.458Z,92.67
2018-12-12T20:02:33.198Z,92.46
2018-12-12T20:13:02.824Z,92.46
2018-12-12T20:23:25.052Z,92.53
2018-12-12T20:33:48.445Z,92.61
2018-12-12T20:44:14.438Z,92.63
2018-12-12T20:54:37.738Z,92.71
2018-12-12T21:04:58.866Z,92.62
2018-12-12T21:15:22.483Z,92.92
2018-12-12T21:25:44.700Z,93.18
2018-12-12T21:36:04.988Z,93.05
2018-12-12T21:46:26.017Z,92.84
2018-12-12T21:56:47.218Z,92.58
2018-12-12T22:07:08.249Z,93.18
2018-12-12T22:17:28.980Z,93.39
2018-12-12T22:27:49.656Z,93.39
2018-12-12T22:38:09.442Z,92.48
2018-12-12T22:48:28.471Z,92.48
2018-12-12T22:58:48.105Z,92.39
2018-12-12T23:09:09.336Z,92.39
2018-12-12T23:19:29.446Z,91.87
2018-12-12T23:29:51.381Z,91.89
2018-12-12T23:40:10.966Z,91.89
2018-12-12T23:50:30.208Z,91.73
